sensor_id;sensor_type;location;lat;lon;timestamp;P1;durP1;ratioP1;P2;durP2;ratioP2
11827;SDS011;5971;49.646;8.568;2023-07-31T00:00:37;3.72;;;1.70;;
11827;SDS011;5971;49.646;8.568;2023-07-31T00:03:38;5.20;;;3.50;;
11827;SDS011;5971;49.646;8.568;2023-07-31T00:06:40;4.78;;;1.70;;
11827;SDS011;5971;49.646;8.568;2023-07-31T00:09:42;5.63;;;1.55;;
11827;SDS011;5971;49.646;8.568;2023-07-31T00:12:44;3.30;;;1.67;;
11827;SDS011;5971;49.646;8.568;2023-07-31T00:15:46;5.82;;;2.00;;
11827;SDS011;5971;49.646;8.568;2023-07-31T00:18:47;3.35;;;1.75;;
11827;SDS011;5971;49.646;8.568;2023-07-31T00:21:48;3.85;;;1.58;;
11827;SDS011;5971;49.646;8.568;2023-07-31T00:24:50;3.80;;;1.52;;
11827;SDS011;5971;49.646;8.568;2023-07-31T00:27:51;4.22;;;2.30;;
11827;SDS011;5971;49.646;8.568;2023-07-31T00:30:52;5.43;;;1.65;;
11827;SDS011;5971;49.646;8.568;2023-07-31T00:33:54;5.57;;;1.55;;
11827;SDS011;5971;49.646;8.568;2023-07-31T00:36:55;3.67;;;2.03;;
11827;SDS011;5971;49.646;8.568;2023-07-31T00:39:56;4.05;;;1.80;;
11827;SDS011;5971;49.646;8.568;2023-07-31T00:42:58;4.53;;;1.58;;
11827;SDS011;5971;49.646;8.568;2023-07-31T00:46:03;4.28;;;1.52;;
11827;SDS011;5971;49.646;8.568;2023-07-31T00:49:04;3.03;;;1.40;;
11827;SDS011;5971;49.646;8.568;2023-07-31T00:52:06;4.53;;;1.98;;
11827;SDS011;5971;49.646;8.568;2023-07-31T00:55:08;3.63;;;1.52;;
11827;SDS011;5971;49.646;8.568;2023-07-31T00:58:09;5.25;;;2.47;;
11827;SDS011;5971;49.646;8.568;2023-07-31T01:01:11;5.25;;;1.80;;
11827;SDS011;5971;49.646;8.568;2023-07-31T01:04:12;5.45;;;1.80;;
11827;SDS011;5971;49.646;8.568;2023-07-31T01:07:18;5.18;;;1.70;;
11827;SDS011;5971;49.646;8.568;2023-07-31T01:10:23;4.07;;;1.67;;
11827;SDS011;5971;49.646;8.568;2023-07-31T01:13:25;5.53;;;1.55;;
11827;SDS011;5971;49.646;8.568;2023-07-31T01:16:26;5.15;;;2.30;;
11827;SDS011;5971;49.646;8.568;2023-07-31T01:19:28;3.85;;;1.98;;
11827;SDS011;5971;49.646;8.568;2023-07-31T01:22:34;4.38;;;1.70;;
11827;SDS011;5971;49.646;8.568;2023-07-31T01:29:10;5.22;;;2.05;;
11827;SDS011;5971;49.646;8.568;2023-07-31T01:32:12;5.05;;;1.70;;
11827;SDS011;5971;49.646;8.568;2023-07-31T01:35:14;4.60;;;1.90;;
11827;SDS011;5971;49.646;8.568;2023-07-31T01:38:19;7.07;;;1.90;;
11827;SDS011;5971;49.646;8.568;2023-07-31T01:41:21;3.88;;;1.60;;
11827;SDS011;5971;49.646;8.568;2023-07-31T01:44:22;5.20;;;1.58;;
11827;SDS011;5971;49.646;8.568;2023-07-31T01:47:24;3.45;;;1.80;;
11827;SDS011;5971;49.646;8.568;2023-07-31T01:50:25;3.55;;;1.83;;
11827;SDS011;5971;49.646;8.568;2023-07-31T01:53:26;5.53;;;1.75;;
11827;SDS011;5971;49.646;8.568;2023-07-31T01:56:28;5.50;;;1.60;;
11827;SDS011;5971;49.646;8.568;2023-07-31T01:59:29;4.32;;;1.73;;
11827;SDS011;5971;49.646;8.568;2023-07-31T02:02:30;3.95;;;1.70;;
11827;SDS011;5971;49.646;8.568;2023-07-31T02:05:32;3.65;;;1.67;;
11827;SDS011;5971;49.646;8.568;2023-07-31T02:08:33;5.63;;;1.90;;
11827;SDS011;5971;49.646;8.568;2023-07-31T02:11:34;4.75;;;2.00;;
11827;SDS011;5971;49.646;8.568;2023-07-31T02:14:36;4.78;;;2.13;;
11827;SDS011;5971;49.646;8.568;2023-07-31T02:17:37;4.85;;;2.10;;
11827;SDS011;5971;49.646;8.568;2023-07-31T02:20:39;3.45;;;1.88;;
11827;SDS011;5971;49.646;8.568;2023-07-31T02:23:40;5.10;;;1.70;;
11827;SDS011;5971;49.646;8.568;2023-07-31T02:26:41;4.38;;;1.65;;
11827;SDS011;5971;49.646;8.568;2023-07-31T02:29:43;5.10;;;1.85;;
11827;SDS011;5971;49.646;8.568;2023-07-31T02:32:45;4.88;;;1.98;;
11827;SDS011;5971;49.646;8.568;2023-07-31T02:35:46;3.70;;;1.50;;
11827;SDS011;5971;49.646;8.568;2023-07-31T02:38:48;4.72;;;1.80;;
11827;SDS011;5971;49.646;8.568;2023-07-31T02:41:49;5.13;;;1.85;;
11827;SDS011;5971;49.646;8.568;2023-07-31T02:44:50;4.63;;;1.70;;
11827;SDS011;5971;49.646;8.568;2023-07-31T02:47:56;5.97;;;1.92;;
11827;SDS011;5971;49.646;8.568;2023-07-31T02:50:58;2.92;;;1.48;;
11827;SDS011;5971;49.646;8.568;2023-07-31T02:53:59;3.95;;;1.80;;
11827;SDS011;5971;49.646;8.568;2023-07-31T02:57:00;3.70;;;1.67;;
11827;SDS011;5971;49.646;8.568;2023-07-31T03:00:02;4.68;;;1.60;;
11827;SDS011;5971;49.646;8.568;2023-07-31T03:03:07;3.78;;;1.55;;
11827;SDS011;5971;49.646;8.568;2023-07-31T03:06:08;8.90;;;1.70;;
11827;SDS011;5971;49.646;8.568;2023-07-31T03:09:09;5.63;;;1.90;;
11827;SDS011;5971;49.646;8.568;2023-07-31T03:12:11;4.60;;;1.95;;
11827;SDS011;5971;49.646;8.568;2023-07-31T03:15:12;3.35;;;1.75;;
11827;SDS011;5971;49.646;8.568;2023-07-31T03:18:14;5.60;;;1.95;;
11827;SDS011;5971;49.646;8.568;2023-07-31T03:21:15;5.57;;;1.60;;
11827;SDS011;5971;49.646;8.568;2023-07-31T03:24:16;4.57;;;1.63;;
11827;SDS011;5971;49.646;8.568;2023-07-31T03:27:18;4.45;;;1.90;;
11827;SDS011;5971;49.646;8.568;2023-07-31T03:30:19;4.40;;;1.67;;
11827;SDS011;5971;49.646;8.568;2023-07-31T03:33:21;4.38;;;1.60;;
11827;SDS011;5971;49.646;8.568;2023-07-31T03:36:22;5.93;;;1.75;;
11827;SDS011;5971;49.646;8.568;2023-07-31T03:39:23;4.50;;;2.28;;
11827;SDS011;5971;49.646;8.568;2023-07-31T03:42:25;4.10;;;1.80;;
11827;SDS011;5971;49.646;8.568;2023-07-31T03:45:26;4.75;;;2.00;;
11827;SDS011;5971;49.646;8.568;2023-07-31T03:48:28;5.45;;;1.58;;
11827;SDS011;5971;49.646;8.568;2023-07-31T03:51:29;3.13;;;1.63;;
11827;SDS011;5971;49.646;8.568;2023-07-31T03:54:30;4.90;;;1.80;;
11827;SDS011;5971;49.646;8.568;2023-07-31T03:57:32;4.05;;;1.80;;
11827;SDS011;5971;49.646;8.568;2023-07-31T04:00:33;3.60;;;1.70;;
11827;SDS011;5971;49.646;8.568;2023-07-31T04:03:35;4.30;;;1.90;;
11827;SDS011;5971;49.646;8.568;2023-07-31T04:06:36;3.75;;;1.65;;
11827;SDS011;5971;49.646;8.568;2023-07-31T04:09:38;4.35;;;1.42;;
11827;SDS011;5971;49.646;8.568;2023-07-31T04:12:40;4.93;;;2.05;;
11827;SDS011;5971;49.646;8.568;2023-07-31T04:15:41;3.50;;;1.67;;
11827;SDS011;5971;49.646;8.568;2023-07-31T04:18:43;4.25;;;1.40;;
11827;SDS011;5971;49.646;8.568;2023-07-31T04:21:44;4.22;;;2.40;;
11827;SDS011;5971;49.646;8.568;2023-07-31T04:24:45;4.88;;;1.85;;
11827;SDS011;5971;49.646;8.568;2023-07-31T04:27:47;4.20;;;1.90;;
11827;SDS011;5971;49.646;8.568;2023-07-31T04:30:48;3.55;;;1.60;;
11827;SDS011;5971;49.646;8.568;2023-07-31T04:33:51;3.55;;;1.70;;
11827;SDS011;5971;49.646;8.568;2023-07-31T04:36:52;6.05;;;2.00;;
11827;SDS011;5971;49.646;8.568;2023-07-31T04:39:54;5.78;;;1.85;;
11827;SDS011;5971;49.646;8.568;2023-07-31T04:42:55;4.15;;;2.00;;
11827;SDS011;5971;49.646;8.568;2023-07-31T04:45:56;4.40;;;2.30;;
11827;SDS011;5971;49.646;8.568;2023-07-31T04:48:59;4.00;;;1.70;;
11827;SDS011;5971;49.646;8.568;2023-07-31T04:52:00;5.60;;;1.90;;
11827;SDS011;5971;49.646;8.568;2023-07-31T04:55:02;3.78;;;1.60;;
11827;SDS011;5971;49.646;8.568;2023-07-31T04:58:03;4.88;;;2.25;;
11827;SDS011;5971;49.646;8.568;2023-07-31T05:01:05;6.40;;;1.70;;
11827;SDS011;5971;49.646;8.568;2023-07-31T05:04:06;4.25;;;2.15;;
11827;SDS011;5971;49.646;8.568;2023-07-31T05:07:08;5.18;;;1.80;;
11827;SDS011;5971;49.646;8.568;2023-07-31T05:10:09;5.05;;;2.40;;
11827;SDS011;5971;49.646;8.568;2023-07-31T05:13:10;3.83;;;1.77;;
11827;SDS011;5971;49.646;8.568;2023-07-31T05:16:12;4.22;;;1.73;;
11827;SDS011;5971;49.646;8.568;2023-07-31T05:19:13;4.47;;;2.08;;
11827;SDS011;5971;49.646;8.568;2023-07-31T05:22:15;4.57;;;1.90;;
11827;SDS011;5971;49.646;8.568;2023-07-31T05:25:16;4.90;;;2.50;;
11827;SDS011;5971;49.646;8.568;2023-07-31T05:28:18;6.43;;;2.03;;
11827;SDS011;5971;49.646;8.568;2023-07-31T05:31:19;4.38;;;1.63;;
11827;SDS011;5971;49.646;8.568;2023-07-31T05:34:22;3.65;;;1.70;;
11827;SDS011;5971;49.646;8.568;2023-07-31T05:37:23;3.47;;;1.70;;
11827;SDS011;5971;49.646;8.568;2023-07-31T05:40:24;4.43;;;1.77;;
11827;SDS011;5971;49.646;8.568;2023-07-31T05:43:26;5.95;;;2.70;;
11827;SDS011;5971;49.646;8.568;2023-07-31T05:46:27;3.42;;;2.15;;
11827;SDS011;5971;49.646;8.568;2023-07-31T05:49:28;5.70;;;2.05;;
11827;SDS011;5971;49.646;8.568;2023-07-31T05:52:30;4.28;;;1.80;;
11827;SDS011;5971;49.646;8.568;2023-07-31T05:55:31;5.60;;;1.95;;
11827;SDS011;5971;49.646;8.568;2023-07-31T05:58:32;4.25;;;1.50;;
11827;SDS011;5971;49.646;8.568;2023-07-31T06:01:34;4.20;;;1.80;;
11827;SDS011;5971;49.646;8.568;2023-07-31T06:04:35;3.97;;;1.70;;
11827;SDS011;5971;49.646;8.568;2023-07-31T06:07:37;3.45;;;1.63;;
11827;SDS011;5971;49.646;8.568;2023-07-31T06:10:38;4.63;;;1.88;;
11827;SDS011;5971;49.646;8.568;2023-07-31T06:13:39;3.33;;;1.70;;
11827;SDS011;5971;49.646;8.568;2023-07-31T06:16:44;3.80;;;2.03;;
11827;SDS011;5971;49.646;8.568;2023-07-31T06:19:45;3.40;;;1.65;;
11827;SDS011;5971;49.646;8.568;2023-07-31T06:22:47;4.05;;;1.70;;
11827;SDS011;5971;49.646;8.568;2023-07-31T06:25:48;3.40;;;1.70;;
11827;SDS011;5971;49.646;8.568;2023-07-31T06:28:49;4.13;;;1.70;;
11827;SDS011;5971;49.646;8.568;2023-07-31T06:31:51;4.35;;;1.77;;
11827;SDS011;5971;49.646;8.568;2023-07-31T06:34:52;5.15;;;1.70;;
11827;SDS011;5971;49.646;8.568;2023-07-31T06:37:55;5.85;;;1.92;;
11827;SDS011;5971;49.646;8.568;2023-07-31T06:40:56;4.03;;;1.50;;
11827;SDS011;5971;49.646;8.568;2023-07-31T06:43:57;5.43;;;2.45;;
11827;SDS011;5971;49.646;8.568;2023-07-31T06:46:59;4.65;;;2.00;;
11827;SDS011;5971;49.646;8.568;2023-07-31T06:50:00;3.95;;;2.00;;
11827;SDS011;5971;49.646;8.568;2023-07-31T06:53:02;4.18;;;1.92;;
11827;SDS011;5971;49.646;8.568;2023-07-31T06:56:03;4.15;;;1.80;;
11827;SDS011;5971;49.646;8.568;2023-07-31T06:59:05;7.05;;;1.95;;
11827;SDS011;5971;49.646;8.568;2023-07-31T07:02:06;4.68;;;1.58;;
11827;SDS011;5971;49.646;8.568;2023-07-31T07:05:08;5.13;;;1.65;;
11827;SDS011;5971;49.646;8.568;2023-07-31T07:08:09;4.65;;;1.77;;
11827;SDS011;5971;49.646;8.568;2023-07-31T07:11:11;5.75;;;1.98;;
11827;SDS011;5971;49.646;8.568;2023-07-31T07:14:12;5.47;;;2.92;;
11827;SDS011;5971;49.646;8.568;2023-07-31T07:17:14;4.45;;;2.33;;
11827;SDS011;5971;49.646;8.568;2023-07-31T07:20:15;3.65;;;1.95;;
11827;SDS011;5971;49.646;8.568;2023-07-31T07:23:16;4.50;;;1.70;;
11827;SDS011;5971;49.646;8.568;2023-07-31T07:26:18;3.60;;;1.80;;
11827;SDS011;5971;49.646;8.568;2023-07-31T07:29:19;5.25;;;1.70;;
11827;SDS011;5971;49.646;8.568;2023-07-31T07:32:21;4.90;;;1.88;;
11827;SDS011;5971;49.646;8.568;2023-07-31T07:35:22;3.17;;;1.63;;
11827;SDS011;5971;49.646;8.568;2023-07-31T07:38:23;4.63;;;1.90;;
11827;SDS011;5971;49.646;8.568;2023-07-31T07:41:25;4.30;;;2.15;;
11827;SDS011;5971;49.646;8.568;2023-07-31T07:44:26;3.95;;;1.70;;
11827;SDS011;5971;49.646;8.568;2023-07-31T07:47:28;4.72;;;1.92;;
11827;SDS011;5971;49.646;8.568;2023-07-31T07:50:29;4.10;;;1.58;;
11827;SDS011;5971;49.646;8.568;2023-07-31T07:53:31;4.25;;;1.80;;
11827;SDS011;5971;49.646;8.568;2023-07-31T07:56:32;4.40;;;1.65;;
11827;SDS011;5971;49.646;8.568;2023-07-31T07:59:34;5.32;;;1.90;;
11827;SDS011;5971;49.646;8.568;2023-07-31T08:02:35;3.63;;;1.67;;
11827;SDS011;5971;49.646;8.568;2023-07-31T08:05:36;3.40;;;1.98;;
11827;SDS011;5971;49.646;8.568;2023-07-31T08:08:38;5.18;;;2.20;;
11827;SDS011;5971;49.646;8.568;2023-07-31T08:11:39;5.40;;;2.00;;
11827;SDS011;5971;49.646;8.568;2023-07-31T08:14:41;6.22;;;1.98;;
11827;SDS011;5971;49.646;8.568;2023-07-31T08:17:42;3.45;;;1.58;;
11827;SDS011;5971;49.646;8.568;2023-07-31T08:20:43;3.88;;;1.60;;
11827;SDS011;5971;49.646;8.568;2023-07-31T08:23:45;3.33;;;1.50;;
11827;SDS011;5971;49.646;8.568;2023-07-31T08:26:46;4.28;;;1.85;;
11827;SDS011;5971;49.646;8.568;2023-07-31T08:29:48;5.72;;;2.45;;
11827;SDS011;5971;49.646;8.568;2023-07-31T08:32:49;3.92;;;1.85;;
11827;SDS011;5971;49.646;8.568;2023-07-31T08:35:50;4.15;;;2.33;;
11827;SDS011;5971;49.646;8.568;2023-07-31T08:38:52;4.18;;;2.10;;
11827;SDS011;5971;49.646;8.568;2023-07-31T08:41:57;4.72;;;1.80;;
11827;SDS011;5971;49.646;8.568;2023-07-31T08:44:59;5.03;;;2.28;;
11827;SDS011;5971;49.646;8.568;2023-07-31T08:48:01;3.97;;;1.80;;
11827;SDS011;5971;49.646;8.568;2023-07-31T08:51:02;4.20;;;2.35;;
11827;SDS011;5971;49.646;8.568;2023-07-31T08:54:03;3.65;;;1.58;;
11827;SDS011;5971;49.646;8.568;2023-07-31T08:57:05;3.50;;;1.73;;
11827;SDS011;5971;49.646;8.568;2023-07-31T09:00:07;5.18;;;2.50;;
11827;SDS011;5971;49.646;8.568;2023-07-31T09:03:12;4.10;;;2.30;;
11827;SDS011;5971;49.646;8.568;2023-07-31T09:06:14;6.90;;;2.00;;
11827;SDS011;5971;49.646;8.568;2023-07-31T09:09:17;3.80;;;1.70;;
11827;SDS011;5971;49.646;8.568;2023-07-31T09:12:20;5.40;;;1.80;;
11827;SDS011;5971;49.646;8.568;2023-07-31T09:15:21;3.95;;;1.98;;
11827;SDS011;5971;49.646;8.568;2023-07-31T09:18:53;5.78;;;1.90;;
11827;SDS011;5971;49.646;8.568;2023-07-31T09:21:56;4.38;;;2.05;;
11827;SDS011;5971;49.646;8.568;2023-07-31T09:24:57;6.13;;;1.70;;
11827;SDS011;5971;49.646;8.568;2023-07-31T09:28:06;4.80;;;2.00;;
11827;SDS011;5971;49.646;8.568;2023-07-31T09:31:08;3.80;;;1.80;;
11827;SDS011;5971;49.646;8.568;2023-07-31T09:34:09;4.72;;;2.03;;
11827;SDS011;5971;49.646;8.568;2023-07-31T09:37:12;4.18;;;2.15;;
11827;SDS011;5971;49.646;8.568;2023-07-31T09:40:24;5.38;;;2.25;;
11827;SDS011;5971;49.646;8.568;2023-07-31T09:43:26;4.50;;;2.00;;
11827;SDS011;5971;49.646;8.568;2023-07-31T09:46:28;4.93;;;2.00;;
11827;SDS011;5971;49.646;8.568;2023-07-31T09:49:31;5.15;;;2.03;;
11827;SDS011;5971;49.646;8.568;2023-07-31T09:52:32;6.35;;;1.83;;
11827;SDS011;5971;49.646;8.568;2023-07-31T09:55:34;5.85;;;2.00;;
11827;SDS011;5971;49.646;8.568;2023-07-31T09:58:35;3.88;;;2.13;;
11827;SDS011;5971;49.646;8.568;2023-07-31T10:01:37;4.13;;;1.80;;
11827;SDS011;5971;49.646;8.568;2023-07-31T10:04:39;4.00;;;1.80;;
11827;SDS011;5971;49.646;8.568;2023-07-31T10:07:44;5.97;;;2.10;;
11827;SDS011;5971;49.646;8.568;2023-07-31T10:10:46;6.78;;;2.00;;
11827;SDS011;5971;49.646;8.568;2023-07-31T10:13:48;5.43;;;1.92;;
11827;SDS011;5971;49.646;8.568;2023-07-31T10:16:49;3.53;;;1.98;;
11827;SDS011;5971;49.646;8.568;2023-07-31T10:19:51;5.57;;;1.90;;
11827;SDS011;5971;49.646;8.568;2023-07-31T10:22:54;5.15;;;2.05;;
11827;SDS011;5971;49.646;8.568;2023-07-31T10:25:56;5.95;;;2.65;;
11827;SDS011;5971;49.646;8.568;2023-07-31T10:28:58;4.53;;;2.38;;
11827;SDS011;5971;49.646;8.568;2023-07-31T10:31:59;3.65;;;2.28;;
11827;SDS011;5971;49.646;8.568;2023-07-31T10:35:01;3.53;;;2.40;;
11827;SDS011;5971;49.646;8.568;2023-07-31T10:38:10;4.65;;;1.90;;
11827;SDS011;5971;49.646;8.568;2023-07-31T10:41:15;6.35;;;2.70;;
11827;SDS011;5971;49.646;8.568;2023-07-31T10:44:16;4.63;;;1.92;;
11827;SDS011;5971;49.646;8.568;2023-07-31T10:47:20;7.43;;;2.30;;
11827;SDS011;5971;49.646;8.568;2023-07-31T10:50:22;5.25;;;2.20;;
11827;SDS011;5971;49.646;8.568;2023-07-31T10:53:31;4.45;;;2.60;;
11827;SDS011;5971;49.646;8.568;2023-07-31T10:56:37;4.05;;;2.08;;
11827;SDS011;5971;49.646;8.568;2023-07-31T10:59:39;3.95;;;1.80;;
11827;SDS011;5971;49.646;8.568;2023-07-31T11:02:40;5.95;;;2.13;;
11827;SDS011;5971;49.646;8.568;2023-07-31T11:08:50;5.18;;;2.20;;
11827;SDS011;5971;49.646;8.568;2023-07-31T11:11:51;6.47;;;2.10;;
11827;SDS011;5971;49.646;8.568;2023-07-31T11:14:54;3.78;;;1.83;;
11827;SDS011;5971;49.646;8.568;2023-07-31T11:17:56;4.72;;;2.00;;
11827;SDS011;5971;49.646;8.568;2023-07-31T11:20:59;4.57;;;2.25;;
11827;SDS011;5971;49.646;8.568;2023-07-31T11:24:00;4.80;;;1.90;;
11827;SDS011;5971;49.646;8.568;2023-07-31T11:27:07;6.65;;;2.38;;
11827;SDS011;5971;49.646;8.568;2023-07-31T11:30:08;4.72;;;2.17;;
11827;SDS011;5971;49.646;8.568;2023-07-31T11:33:11;5.88;;;2.25;;
11827;SDS011;5971;49.646;8.568;2023-07-31T11:36:16;4.40;;;1.85;;
11827;SDS011;5971;49.646;8.568;2023-07-31T11:39:17;4.63;;;2.00;;
11827;SDS011;5971;49.646;8.568;2023-07-31T11:42:19;6.10;;;2.90;;
11827;SDS011;5971;49.646;8.568;2023-07-31T11:45:20;5.78;;;2.20;;
11827;SDS011;5971;49.646;8.568;2023-07-31T11:48:23;6.03;;;2.42;;
11827;SDS011;5971;49.646;8.568;2023-07-31T11:51:25;3.88;;;2.03;;
11827;SDS011;5971;49.646;8.568;2023-07-31T11:54:27;4.50;;;2.20;;
11827;SDS011;5971;49.646;8.568;2023-07-31T11:57:28;6.60;;;2.55;;
11827;SDS011;5971;49.646;8.568;2023-07-31T12:00:30;5.60;;;2.97;;
11827;SDS011;5971;49.646;8.568;2023-07-31T12:03:31;4.45;;;2.22;;
11827;SDS011;5971;49.646;8.568;2023-07-31T12:06:34;5.22;;;2.50;;
11827;SDS011;5971;49.646;8.568;2023-07-31T12:09:36;5.78;;;2.42;;
11827;SDS011;5971;49.646;8.568;2023-07-31T12:12:38;7.40;;;2.20;;
11827;SDS011;5971;49.646;8.568;2023-07-31T12:15:41;4.93;;;2.20;;
11827;SDS011;5971;49.646;8.568;2023-07-31T12:18:43;7.63;;;2.33;;
11827;SDS011;5971;49.646;8.568;2023-07-31T12:21:44;5.13;;;2.22;;
11827;SDS011;5971;49.646;8.568;2023-07-31T12:24:46;4.93;;;2.03;;
11827;SDS011;5971;49.646;8.568;2023-07-31T12:27:48;6.28;;;2.65;;
11827;SDS011;5971;49.646;8.568;2023-07-31T12:30:52;5.82;;;1.98;;
11827;SDS011;5971;49.646;8.568;2023-07-31T12:33:57;4.13;;;1.98;;
11827;SDS011;5971;49.646;8.568;2023-07-31T12:36:59;4.10;;;1.90;;
11827;SDS011;5971;49.646;8.568;2023-07-31T12:40:01;3.92;;;1.77;;
11827;SDS011;5971;49.646;8.568;2023-07-31T12:43:09;4.55;;;1.85;;
11827;SDS011;5971;49.646;8.568;2023-07-31T12:46:10;4.82;;;1.80;;
11827;SDS011;5971;49.646;8.568;2023-07-31T12:49:12;4.10;;;1.80;;
11827;SDS011;5971;49.646;8.568;2023-07-31T12:52:14;4.18;;;1.88;;
11827;SDS011;5971;49.646;8.568;2023-07-31T12:55:15;4.82;;;1.90;;
11827;SDS011;5971;49.646;8.568;2023-07-31T12:58:17;5.07;;;1.70;;
11827;SDS011;5971;49.646;8.568;2023-07-31T13:01:19;4.20;;;1.83;;
11827;SDS011;5971;49.646;8.568;2023-07-31T13:04:20;4.30;;;1.73;;
11827;SDS011;5971;49.646;8.568;2023-07-31T13:07:22;4.80;;;2.17;;
11827;SDS011;5971;49.646;8.568;2023-07-31T13:10:24;4.28;;;2.17;;
11827;SDS011;5971;49.646;8.568;2023-07-31T13:13:28;4.88;;;2.45;;
11827;SDS011;5971;49.646;8.568;2023-07-31T13:16:33;5.47;;;1.95;;
11827;SDS011;5971;49.646;8.568;2023-07-31T13:19:34;4.63;;;1.90;;
11827;SDS011;5971;49.646;8.568;2023-07-31T13:22:36;4.35;;;2.03;;
11827;SDS011;5971;49.646;8.568;2023-07-31T13:25:37;5.28;;;1.92;;
11827;SDS011;5971;49.646;8.568;2023-07-31T13:28:39;4.40;;;1.88;;
11827;SDS011;5971;49.646;8.568;2023-07-31T13:31:40;4.28;;;1.60;;
11827;SDS011;5971;49.646;8.568;2023-07-31T13:34:41;4.75;;;2.13;;
11827;SDS011;5971;49.646;8.568;2023-07-31T13:37:43;5.03;;;2.13;;
11827;SDS011;5971;49.646;8.568;2023-07-31T13:40:44;4.22;;;2.00;;
11827;SDS011;5971;49.646;8.568;2023-07-31T13:43:46;4.90;;;2.00;;
11827;SDS011;5971;49.646;8.568;2023-07-31T13:46:47;4.10;;;1.80;;
11827;SDS011;5971;49.646;8.568;2023-07-31T13:49:48;5.28;;;2.15;;
11827;SDS011;5971;49.646;8.568;2023-07-31T13:52:50;4.28;;;1.80;;
11827;SDS011;5971;49.646;8.568;2023-07-31T13:55:51;6.15;;;2.05;;
11827;SDS011;5971;49.646;8.568;2023-07-31T13:58:52;4.15;;;2.05;;
11827;SDS011;5971;49.646;8.568;2023-07-31T14:01:54;4.10;;;1.95;;
11827;SDS011;5971;49.646;8.568;2023-07-31T14:04:55;4.75;;;2.10;;
11827;SDS011;5971;49.646;8.568;2023-07-31T14:07:56;5.80;;;2.00;;
11827;SDS011;5971;49.646;8.568;2023-07-31T14:10:58;4.50;;;2.00;;
11827;SDS011;5971;49.646;8.568;2023-07-31T14:13:59;4.50;;;2.03;;
11827;SDS011;5971;49.646;8.568;2023-07-31T14:17:02;5.18;;;2.05;;
11827;SDS011;5971;49.646;8.568;2023-07-31T14:20:04;4.28;;;2.08;;
11827;SDS011;5971;49.646;8.568;2023-07-31T14:23:06;5.60;;;2.03;;
11827;SDS011;5971;49.646;8.568;2023-07-31T14:26:07;4.68;;;2.20;;
11827;SDS011;5971;49.646;8.568;2023-07-31T14:29:09;6.10;;;2.13;;
11827;SDS011;5971;49.646;8.568;2023-07-31T14:32:10;4.70;;;1.98;;
11827;SDS011;5971;49.646;8.568;2023-07-31T14:35:12;4.05;;;1.90;;
11827;SDS011;5971;49.646;8.568;2023-07-31T14:38:13;4.82;;;1.90;;
11827;SDS011;5971;49.646;8.568;2023-07-31T14:41:15;4.32;;;1.80;;
11827;SDS011;5971;49.646;8.568;2023-07-31T14:44:16;5.10;;;2.22;;
11827;SDS011;5971;49.646;8.568;2023-07-31T14:47:18;6.05;;;2.17;;
11827;SDS011;5971;49.646;8.568;2023-07-31T14:50:19;5.18;;;1.95;;
11827;SDS011;5971;49.646;8.568;2023-07-31T14:53:21;4.05;;;1.83;;
11827;SDS011;5971;49.646;8.568;2023-07-31T14:56:23;4.13;;;2.05;;
11827;SDS011;5971;49.646;8.568;2023-07-31T14:59:24;4.43;;;2.17;;
11827;SDS011;5971;49.646;8.568;2023-07-31T15:02:26;3.70;;;2.03;;
11827;SDS011;5971;49.646;8.568;2023-07-31T15:05:28;4.38;;;2.08;;
11827;SDS011;5971;49.646;8.568;2023-07-31T15:08:30;5.57;;;1.92;;
11827;SDS011;5971;49.646;8.568;2023-07-31T15:11:31;5.18;;;1.95;;
11827;SDS011;5971;49.646;8.568;2023-07-31T15:14:33;4.60;;;1.92;;
11827;SDS011;5971;49.646;8.568;2023-07-31T15:17:35;4.43;;;2.00;;
11827;SDS011;5971;49.646;8.568;2023-07-31T15:20:37;4.78;;;1.80;;
11827;SDS011;5971;49.646;8.568;2023-07-31T15:23:38;3.83;;;2.03;;
11827;SDS011;5971;49.646;8.568;2023-07-31T15:26:40;6.20;;;1.75;;
11827;SDS011;5971;49.646;8.568;2023-07-31T15:29:43;5.00;;;1.98;;
11827;SDS011;5971;49.646;8.568;2023-07-31T15:32:44;4.93;;;1.85;;
11827;SDS011;5971;49.646;8.568;2023-07-31T15:35:49;3.63;;;1.70;;
11827;SDS011;5971;49.646;8.568;2023-07-31T15:38:51;4.43;;;2.30;;
11827;SDS011;5971;49.646;8.568;2023-07-31T15:41:53;4.93;;;2.15;;
11827;SDS011;5971;49.646;8.568;2023-07-31T15:44:54;4.15;;;1.80;;
11827;SDS011;5971;49.646;8.568;2023-07-31T15:47:55;3.75;;;1.65;;
11827;SDS011;5971;49.646;8.568;2023-07-31T15:50:57;3.97;;;1.70;;
11827;SDS011;5971;49.646;8.568;2023-07-31T15:53:58;4.60;;;2.10;;
11827;SDS011;5971;49.646;8.568;2023-07-31T15:56:59;4.53;;;1.70;;
11827;SDS011;5971;49.646;8.568;2023-07-31T16:00:01;4.13;;;1.90;;
11827;SDS011;5971;49.646;8.568;2023-07-31T16:03:02;5.63;;;2.35;;
11827;SDS011;5971;49.646;8.568;2023-07-31T16:06:04;3.78;;;1.88;;
11827;SDS011;5971;49.646;8.568;2023-07-31T16:09:05;5.53;;;2.60;;
11827;SDS011;5971;49.646;8.568;2023-07-31T16:12:06;4.80;;;1.85;;
11827;SDS011;5971;49.646;8.568;2023-07-31T16:15:08;5.50;;;1.92;;
11827;SDS011;5971;49.646;8.568;2023-07-31T16:18:09;5.22;;;1.85;;
11827;SDS011;5971;49.646;8.568;2023-07-31T16:21:11;4.25;;;2.13;;
11827;SDS011;5971;49.646;8.568;2023-07-31T16:24:12;4.63;;;1.80;;
11827;SDS011;5971;49.646;8.568;2023-07-31T16:27:14;5.22;;;1.95;;
11827;SDS011;5971;49.646;8.568;2023-07-31T16:30:15;3.72;;;1.70;;
11827;SDS011;5971;49.646;8.568;2023-07-31T16:33:16;4.05;;;1.85;;
11827;SDS011;5971;49.646;8.568;2023-07-31T16:36:18;5.38;;;2.05;;
11827;SDS011;5971;49.646;8.568;2023-07-31T16:39:22;6.32;;;2.58;;
11827;SDS011;5971;49.646;8.568;2023-07-31T16:42:24;4.80;;;2.13;;
11827;SDS011;5971;49.646;8.568;2023-07-31T16:45:25;4.63;;;2.35;;
11827;SDS011;5971;49.646;8.568;2023-07-31T16:48:27;4.88;;;2.05;;
11827;SDS011;5971;49.646;8.568;2023-07-31T16:51:28;6.65;;;2.53;;
11827;SDS011;5971;49.646;8.568;2023-07-31T16:54:29;5.05;;;3.28;;
11827;SDS011;5971;49.646;8.568;2023-07-31T16:57:31;5.18;;;2.35;;
11827;SDS011;5971;49.646;8.568;2023-07-31T17:00:32;4.97;;;1.90;;
11827;SDS011;5971;49.646;8.568;2023-07-31T17:03:34;6.22;;;2.60;;
11827;SDS011;5971;49.646;8.568;2023-07-31T17:06:35;4.80;;;2.95;;
11827;SDS011;5971;49.646;8.568;2023-07-31T17:09:37;6.10;;;2.75;;
11827;SDS011;5971;49.646;8.568;2023-07-31T17:12:38;6.68;;;2.53;;
11827;SDS011;5971;49.646;8.568;2023-07-31T17:15:40;5.40;;;2.40;;
11827;SDS011;5971;49.646;8.568;2023-07-31T17:18:41;7.20;;;3.20;;
11827;SDS011;5971;49.646;8.568;2023-07-31T17:21:42;8.98;;;3.17;;
11827;SDS011;5971;49.646;8.568;2023-07-31T17:24:44;7.30;;;2.97;;
11827;SDS011;5971;49.646;8.568;2023-07-31T17:27:45;5.75;;;3.00;;
11827;SDS011;5971;49.646;8.568;2023-07-31T17:30:49;6.53;;;3.03;;
11827;SDS011;5971;49.646;8.568;2023-07-31T17:33:51;6.93;;;2.92;;
11827;SDS011;5971;49.646;8.568;2023-07-31T17:36:52;6.10;;;3.40;;
11827;SDS011;5971;49.646;8.568;2023-07-31T17:39:54;7.00;;;2.63;;
11827;SDS011;5971;49.646;8.568;2023-07-31T17:42:55;6.93;;;3.33;;
11827;SDS011;5971;49.646;8.568;2023-07-31T17:45:57;6.63;;;2.72;;
11827;SDS011;5971;49.646;8.568;2023-07-31T17:48:58;7.65;;;2.88;;
11827;SDS011;5971;49.646;8.568;2023-07-31T17:52:01;5.93;;;3.30;;
11827;SDS011;5971;49.646;8.568;2023-07-31T17:55:03;7.70;;;3.20;;
11827;SDS011;5971;49.646;8.568;2023-07-31T17:58:04;6.95;;;3.35;;
11827;SDS011;5971;49.646;8.568;2023-07-31T18:01:06;7.53;;;3.53;;
11827;SDS011;5971;49.646;8.568;2023-07-31T18:04:07;7.55;;;3.15;;
11827;SDS011;5971;49.646;8.568;2023-07-31T18:07:10;9.02;;;3.45;;
11827;SDS011;5971;49.646;8.568;2023-07-31T18:10:12;7.88;;;3.42;;
11827;SDS011;5971;49.646;8.568;2023-07-31T18:13:13;7.97;;;3.03;;
11827;SDS011;5971;49.646;8.568;2023-07-31T18:16:14;7.85;;;3.90;;
11827;SDS011;5971;49.646;8.568;2023-07-31T18:19:16;9.25;;;3.47;;
11827;SDS011;5971;49.646;8.568;2023-07-31T18:22:17;6.68;;;3.17;;
11827;SDS011;5971;49.646;8.568;2023-07-31T18:25:21;7.03;;;2.83;;
11827;SDS011;5971;49.646;8.568;2023-07-31T18:28:22;5.72;;;2.33;;
11827;SDS011;5971;49.646;8.568;2023-07-31T18:31:24;7.93;;;3.10;;
11827;SDS011;5971;49.646;8.568;2023-07-31T18:34:25;5.00;;;2.60;;
11827;SDS011;5971;49.646;8.568;2023-07-31T18:37:27;6.10;;;3.03;;